Accueil
Images satellite Prévisions 10 joursClimatMétéo marine Cyclones Foudre AéroportsFAQ Actualités A propos
Météo : Europe Afrique Amérique du Nord Amérique du Sud Asie Australie-Océanie Autres
Langues Contact

Bauru, São Paulo, Brésil

latitude: 22-19S, longitude: 049-04W, altitude: 590 m


METAR: SBBU 301600Z 02006KT CAVOK 24/17 Q1019
TAF: SBBU 301030Z 3012/3024 02010KT CAVOK TN20/3012Z TX29/3018Z RMK PEL

Heure: 13:42 (16:42 UTC)

Observation

Le bulletin a été fait il y a 42 minutes, à 16:00 UTC
Vent 6 kt de nord/nord-est
Température 24°C
Humidité 65%
Pression 1019 hPa
Visibilité 10 km ou plus
pas de nuages en-dessous de 1500 mètres et pas de cumulonimbus.

Changer d'unités

Prévision

Le bulletin a été fait il y a 6 heures et 12 minutes, à 10:30 UTC
Prévision valable du 30 à 12 UTC au 30 à 24 UTC
Vent 10 kt de nord/nord-est
Visibilité 10 km ou plus
pas de nuages en-dessous de 1500 mètres et pas de cumulonimbus.
Les informations qui figurent sur ce site font l'objet d'une clause de non-responsabilité
Météo : Europe Afrique Amérique du Nord Amérique du Sud Asie Australie-Océanie Autres
Images satellite Prévisions 10 joursClimatMétéo marine Cyclones Foudre AéroportsFAQ Langues Contact Actualités A propos